createdAt,value
2022-10-31T00:01:16.043Z,50.9
2022-10-31T00:06:34.835Z,51.4
2022-10-31T00:11:53.017Z,51.1
2022-10-31T00:17:11.509Z,50.9
2022-10-31T00:22:29.736Z,50.7
2022-10-31T00:27:48.222Z,51.6
2022-10-31T00:33:06.772Z,51.5
2022-10-31T00:38:25.297Z,51.5
2022-10-31T00:43:27.868Z,50.8
2022-10-31T00:48:46.650Z,50.8
2022-10-31T00:54:04.601Z,50.8
2022-10-31T00:59:22.796Z,51.6
2022-10-31T01:04:41.284Z,51.4
2022-10-31T01:09:59.247Z,50.3
2022-10-31T01:15:17.713Z,51.7
2022-10-31T01:20:36.481Z,51.1
2022-10-31T01:25:55.274Z,50.5
2022-10-31T01:31:13.733Z,51.6
2022-10-31T01:36:32.216Z,51.5
2022-10-31T01:41:50.437Z,51.5
2022-10-31T01:47:08.891Z,51.9
2022-10-31T01:52:27.101Z,51.6
2022-10-31T01:57:45.601Z,51.5
2022-10-31T02:03:05.056Z,51.3
2022-10-31T02:08:23.254Z,51.1
2022-10-31T02:13:41.487Z,51.9
2022-10-31T02:18:59.939Z,51.3
2022-10-31T02:24:17.872Z,50.7
2022-10-31T02:29:36.105Z,51.2
2022-10-31T02:34:54.017Z,51.4
2022-10-31T02:40:12.783Z,51
2022-10-31T02:45:30.908Z,50.9
2022-10-31T02:50:49.353Z,51.5
2022-10-31T02:56:08.126Z,51.5
2022-10-31T03:01:27.155Z,51.6
2022-10-31T03:06:45.435Z,51.6
2022-10-31T03:12:03.371Z,51.1
2022-10-31T03:17:21.887Z,51.6
2022-10-31T03:22:40.369Z,51.7
2022-10-31T03:28:00.567Z,50.9
2022-10-31T03:33:18.844Z,51.5
2022-10-31T03:38:37.578Z,51.6
2022-10-31T03:43:56.328Z,51.6
2022-10-31T03:49:14.572Z,50.7
2022-10-31T03:54:33.029Z,50.9
2022-10-31T03:59:51.232Z,50.7
2022-10-31T04:05:09.750Z,51.4
2022-10-31T04:10:33.701Z,51.5
2022-10-31T04:15:52.474Z,51.3
2022-10-31T04:21:10.695Z,51.1
2022-10-31T04:26:28.887Z,50.8
2022-10-31T04:31:47.655Z,51.1
2022-10-31T04:37:06.162Z,51.4
2022-10-31T04:42:24.354Z,51.7
2022-10-31T04:47:42.832Z,51.8
2022-10-31T04:53:01.344Z,51
2022-10-31T04:58:19.539Z,50.8
2022-10-31T05:03:37.730Z,50.4
2022-10-31T05:08:55.695Z,50.4
2022-10-31T05:14:14.152Z,51.3
2022-10-31T05:19:32.925Z,51.3
2022-10-31T05:24:51.456Z,51.3
2022-10-31T05:30:09.640Z,51.2
2022-10-31T05:35:28.130Z,51.1
2022-10-31T05:40:46.362Z,51.3
2022-10-31T05:46:04.824Z,51.5
2022-10-31T05:51:23.598Z,51.7
2022-10-31T05:56:42.107Z,48.8
2022-10-31T06:02:00.575Z,43.8
2022-10-31T06:07:19.325Z,45.7
2022-10-31T06:12:37.843Z,46.6
2022-10-31T06:17:56.063Z,48
2022-10-31T06:23:14.527Z,49
2022-10-31T06:28:32.755Z,49.7
2022-10-31T06:33:50.942Z,49.8
2022-10-31T06:39:09.716Z,49.8
2022-10-31T06:44:27.979Z,49.9
2022-10-31T06:49:46.430Z,49.8
2022-10-31T06:55:04.643Z,49
2022-10-31T07:00:22.870Z,49.7
2022-10-31T07:05:41.832Z,49.1
2022-10-31T07:10:59.999Z,49.3
2022-10-31T07:16:18.798Z,49.6
2022-10-31T07:21:37.540Z,48.7
2022-10-31T07:26:55.914Z,49.6
2022-10-31T07:32:13.837Z,48.9
2022-10-31T07:37:32.298Z,49.6
2022-10-31T07:42:51.208Z,48.8
2022-10-31T07:48:09.710Z,49.3
2022-10-31T07:53:28.184Z,48.6
2022-10-31T07:58:46.392Z,48.5
2022-10-31T08:04:04.619Z,48.6
2022-10-31T08:09:22.526Z,49.1
2022-10-31T08:14:40.733Z,48.4
2022-10-31T08:19:58.687Z,48.8
2022-10-31T08:25:16.881Z,49.1
2022-10-31T08:30:35.364Z,49.2
2022-10-31T08:35:53.891Z,48.6
2022-10-31T08:41:12.361Z,48.9
2022-10-31T08:46:31.127Z,49.1
2022-10-31T08:51:49.118Z,49
2022-10-31T08:57:07.314Z,48.7
2022-10-31T09:02:25.774Z,48.2
2022-10-31T09:07:44.416Z,48.3
2022-10-31T09:13:02.593Z,48.9
2022-10-31T09:18:21.101Z,48.8
2022-10-31T09:23:39.604Z,48.2
2022-10-31T09:28:57.785Z,48.9
2022-10-31T09:34:15.998Z,48.5
2022-10-31T09:39:34.232Z,49
2022-10-31T09:44:52.420Z,48.3
2022-10-31T09:50:10.912Z,48.3
2022-10-31T09:55:29.148Z,48.3
2022-10-31T10:00:47.347Z,48.9
2022-10-31T10:06:05.602Z,48.4
2022-10-31T10:11:24.118Z,48.4
2022-10-31T10:16:42.586Z,49.1
2022-10-31T10:22:00.790Z,48.5
2022-10-31T10:27:23.923Z,48.7
2022-10-31T10:32:44.672Z,48.3
2022-10-31T10:37:50.684Z,48.3
2022-10-31T10:43:15.007Z,48.2
2022-10-31T10:48:33.199Z,48.6
2022-10-31T10:53:36.052Z,49.1
2022-10-31T10:58:54.278Z,49.1
2022-10-31T11:04:12.462Z,49.1
2022-10-31T11:09:31.240Z,48.6
2022-10-31T11:14:49.785Z,49.1
2022-10-31T11:19:52.617Z,49.1
2022-10-31T11:25:11.115Z,48.9
2022-10-31T11:30:29.913Z,49
2022-10-31T11:35:57.033Z,49.2
2022-10-31T11:41:16.762Z,48.5
2022-10-31T11:46:35.277Z,49.3
2022-10-31T11:51:53.459Z,48.6
2022-10-31T11:57:12.235Z,48.8
2022-10-31T12:02:30.497Z,49.4
2022-10-31T12:07:48.706Z,48.9
2022-10-31T12:13:07.196Z,48.9
2022-10-31T12:18:25.159Z,49.8
2022-10-31T12:23:43.638Z,49.5
2022-10-31T12:29:01.829Z,50
2022-10-31T12:34:20.071Z,50
2022-10-31T12:39:38.820Z,49.2
2022-10-31T12:44:58.502Z,49.3
2022-10-31T12:50:16.877Z,49.4
2022-10-31T12:55:35.642Z,50.2
2022-10-31T13:00:54.294Z,49.8
2022-10-31T13:06:12.214Z,50.1
2022-10-31T13:11:30.953Z,49.5
2022-10-31T13:16:33.819Z,49.5
2022-10-31T13:21:52.061Z,49.4
2022-10-31T13:27:10.528Z,50
2022-10-31T13:32:29.002Z,49.4
2022-10-31T13:37:55.426Z,49.5
2022-10-31T13:43:13.604Z,49.2
2022-10-31T13:48:31.795Z,49.2
2022-10-31T13:53:50.046Z,49.1
2022-10-31T13:59:08.798Z,49
2022-10-31T14:04:28.132Z,49.5
2022-10-31T14:09:46.503Z,49.6
2022-10-31T14:15:04.967Z,49.7
2022-10-31T14:20:23.734Z,48.9
2022-10-31T14:25:41.967Z,49.6
2022-10-31T14:31:00.715Z,48.9
2022-10-31T14:36:20.738Z,49.4
2022-10-31T14:41:39.240Z,49.4
2022-10-31T14:46:57.986Z,49.2
2022-10-31T14:52:16.748Z,48.9
2022-10-31T14:57:34.973Z,49.1
2022-10-31T15:02:53.151Z,48.3
2022-10-31T15:08:11.629Z,48.3
2022-10-31T15:13:30.400Z,49
2022-10-31T15:18:48.959Z,49.8
2022-10-31T15:24:07.455Z,49.6
2022-10-31T15:29:26.259Z,49.6
2022-10-31T15:34:44.190Z,49.6
2022-10-31T15:39:47.029Z,49.6
2022-10-31T15:45:05.549Z,49.4
2022-10-31T15:50:23.723Z,49
2022-10-31T15:55:41.920Z,49.6
2022-10-31T16:01:00.205Z,49.3
2022-10-31T16:06:18.507Z,49.4
2022-10-31T16:11:36.985Z,49.5
2022-10-31T16:16:55.773Z,49.4
2022-10-31T16:22:13.970Z,49.9
2022-10-31T16:27:32.746Z,49.1
2022-10-31T16:32:51.540Z,49.3
2022-10-31T16:38:09.906Z,50.2
2022-10-31T16:43:27.833Z,49.7
2022-10-31T16:48:46.325Z,49.8
2022-10-31T16:54:05.095Z,49.8
2022-10-31T16:59:23.825Z,49.9
2022-10-31T17:04:42.055Z,49.9
2022-10-31T17:10:00.523Z,49.8
2022-10-31T17:15:19.005Z,49.9
2022-10-31T17:20:37.523Z,50
2022-10-31T17:25:56.010Z,49.3
2022-10-31T17:31:14.530Z,49.7
2022-10-31T17:36:32.755Z,50.3
2022-10-31T17:41:51.495Z,50.2
2022-10-31T17:47:09.974Z,49.3
2022-10-31T17:52:27.931Z,50.3
2022-10-31T17:57:46.126Z,49.5
2022-10-31T18:03:06.083Z,49.9
2022-10-31T18:08:24.597Z,49.5
2022-10-31T18:13:43.061Z,50.1
2022-10-31T18:19:01.272Z,50.3
2022-10-31T18:24:19.789Z,50.1
2022-10-31T18:29:37.976Z,49.7
2022-10-31T18:34:56.751Z,50.6
2022-10-31T18:40:15.387Z,49.7
2022-10-31T18:45:53.684Z,49.9
2022-10-31T18:51:15.202Z,49.8
2022-10-31T18:56:33.146Z,51
2022-10-31T19:01:36.535Z,51.5
2022-10-31T19:06:55.180Z,46.2
2022-10-31T19:12:13.707Z,48.6
2022-10-31T19:17:16.548Z,49.5
2022-10-31T19:22:35.042Z,50.3
2022-10-31T19:27:53.559Z,49.8
2022-10-31T19:32:56.410Z,50.4
2022-10-31T19:38:15.173Z,49.6
2022-10-31T19:43:33.413Z,49.8
2022-10-31T19:48:51.886Z,50.5
2022-10-31T19:54:10.644Z,50.9
2022-10-31T19:59:29.181Z,50.1
2022-10-31T20:04:47.923Z,51.1
2022-10-31T20:10:06.132Z,50.3
2022-10-31T20:15:24.053Z,51.4
2022-10-31T20:20:42.204Z,51.3
2022-10-31T20:26:00.366Z,51.3
2022-10-31T20:31:18.864Z,51.2
2022-10-31T20:36:36.854Z,50.7
2022-10-31T20:41:55.326Z,51.1
2022-10-31T20:47:13.846Z,50.7
2022-10-31T20:52:32.594Z,50.9
2022-10-31T20:57:35.458Z,51
2022-10-31T21:02:53.698Z,51.1
2022-10-31T21:08:12.441Z,51.3
2022-10-31T21:13:31.009Z,51
2022-10-31T21:18:49.814Z,51.2
2022-10-31T21:24:08.736Z,51.7
2022-10-31T21:29:27.241Z,51
2022-10-31T21:34:45.747Z,51.7
2022-10-31T21:40:04.484Z,50.7
2022-10-31T21:45:22.650Z,50.8
2022-10-31T21:50:40.585Z,51.1
2022-10-31T21:55:59.323Z,50.9
2022-10-31T22:01:17.926Z,50.7
2022-10-31T22:06:36.162Z,51.3
2022-10-31T22:11:54.601Z,51.1
2022-10-31T22:17:12.549Z,50.7
2022-10-31T22:22:31.331Z,50.8
2022-10-31T22:27:49.795Z,51.5
2022-10-31T22:33:08.000Z,50.9
2022-10-31T22:38:26.525Z,51.2
2022-10-31T22:43:44.694Z,50.7
2022-10-31T22:49:03.478Z,50.6
2022-10-31T22:54:22.263Z,51.1
2022-10-31T22:59:40.436Z,50.4
2022-10-31T23:04:58.653Z,51
2022-10-31T23:10:17.181Z,50.4
2022-10-31T23:15:35.626Z,51.1
2022-10-31T23:20:54.387Z,50.3
2022-10-31T23:26:13.182Z,51.5
2022-10-31T23:31:31.641Z,50.6
2022-10-31T23:36:49.850Z,50.8
2022-10-31T23:42:08.089Z,51.5
2022-10-31T23:47:26.830Z,51.4
2022-10-31T23:52:45.313Z,50.9
2022-10-31T23:58:05.058Z,51.5
